AirNav   Pilot Hours Calculator
 
 1371 users online  

AZ50 Triangle Airpark
White Hills, Arizona, USA

GOING TO WHITE HILLS?


FAA INFORMATION EFFECTIVE 25 FEBRUARY 2021

Location

FAA Identifier: AZ50
Lat/Long: 35-42-59.0000N 114-28-48.0000W
35-42.983333N 114-28.800000W
35.7163889,-114.4800000
(estimated)
Elevation: 2460 ft. / 750 m (estimated)
Variation: 14E (1985)
From city: 5 miles SW of WHITE HILLS, AZ
Time zone: UTC -7 (year round; does not observe DST)
Zip code: 86441

Airport Operations

Airport use: Private use. Permission required prior to landing
Activation date: 07/1982
Control tower: no
ARTCC: LOS ANGELES CENTER
FSS: PRESCOTT FLIGHT SERVICE STATION
Attendance: CONTINUOUS
Wind indicator: yes
Segmented circle: no

Nearby radio navigation aids

VOR radial/distance  VOR name  Freq  Var
BLDr117/25.1BOULDER CITY VORTAC116.7015E
IGMr301/38.2KINGMAN VOR/DME108.8015E
LASr108/39.6LAS VEGAS VORTAC116.9015E

Airport Services

Runway Information

Runway 17/35

Dimensions: 3900 x 50 ft. / 1189 x 15 m
Surface: asphalt
Runway edge markings: RYS 17 & 35 THLDS MARKED WITH ORANGE CONES.
RUNWAY 17  RUNWAY 35
Traffic pattern: leftleft
Obstructions: nonepline

Runway 8/26

Dimensions: 1844 x 50 ft. / 562 x 15 m
Surface: dirt
Runway edge markings: RYS 08 & 26 THLDS MARKED WITH ORANGE CONES.
RUNWAY 8  RUNWAY 26
Traffic pattern: leftleft
Obstructions: nonepline

Airport Ownership and Management from official FAA records

Ownership: Privately-owned
Owner: BOULDER CITY AERO CLUB INC.
20496 N. MOONEY
WHITE HILLS, AZ 86445
Phone 702-202-9851
Manager: WALT STOUT
20496 N. MOONEY
WHITE HILLS, AZ 86445
Phone 702-202-9851

Airport Operational Statistics

Aircraft based on the field: 17
Single engine airplanes: 10
Multi engine airplanes: 3
Gliders airplanes: 3
Ultralights: 1
    

Additional Remarks

FOR CD CTC LOS ANGELES ARTCC AT 661-575-2079.

Instrument Procedures

There are no published instrument procedures at AZ50.

Some nearby airports with instrument procedures:

KBVU - Boulder City Municipal Airport (23 nm NW)
KIFP - Laughlin/Bullhead International Airport (34 nm S)
KHND - HendersonExecutive Airport (35 nm NW)
KIGM - Kingman Airport (38 nm SE)
KLAS - Mc Carran International Airport (39 nm NW)
 
Loc | Ops | Rwys | IFR | FBO | Links
Com | Nav | Svcs | Stats | Notes
Area around AZ50 (Triangle Airpark)
 
Road maps at: MapQuest Bing Google
 
Aerial photo
WARNING: Photo may not be current or correct
Aerial photo of AZ50 (Triangle Airpark)
Do you have a better or more recent aerial photo of Triangle Airpark that you would like to share? If so, please send us your photo.

 
Sectional chart

 
Airport distance calculator
Flying to Triangle Airpark? Find the distance to fly.

From to AZ50

Sunrise and sunset
Times for 05-Mar-2021
 Local
(UTC-7)
 Zulu
(UTC)
Morning civil twilight06:3813:38
Sunrise07:0314:03
Sunset18:3501:35
Evening civil twilight19:0102:01

Current date and time
Zulu (UTC)  05-Mar-2021 16:37:04
Local (UTC-7)  05-Mar-2021 09:37:04
 
METAR
KBVU 
23nm NW 
051555Z AUTO 00000KT 10SM CLR 09/M07 A3029 RMK AO2
KHND 
36nm NW 
051556Z 17003KT 10SM CLR 12/M03 A3031 RMK AO2 SLP277 T01221033
KIFP 
38nm S 
051552Z 36014KT 20SM SKC 16/M01 A3021
KIGM 
39nm SE 
051551Z AUTO 03005KT 10SM CLR 11/M03 A3028 RMK AO2 SLP224 T01111028
KLAS 
39nm NW 
051556Z 00000KT 10SM FEW250 12/M04 A3030 RMK AO2 SLP253 T01221044
KLSV 
40nm NW 
051558Z AUTO 00000KT 10SM CLR 11/M04 A3029 RMK AO2 SLP254 T01051040 $
KVGT 
45nm NW 
051553Z 33003KT 10SM CLR 12/M05 A3025 RMK AO2 SLP258 T01221050
TAF
KHND 
36nm NW 
051120Z 0512/0612 19007KT P6SM SKC FM051800 04005KT P6SM SKC FM060400 19008KT P6SM FEW250
KIFP 
38nm S 
051120Z 0512/0612 03008KT P6SM SKC FM051500 01015G24KT P6SM SKC FM052300 VRB06KT P6SM SCT250
KLAS 
39nm NW 
051120Z 0512/0618 23006KT P6SM SKC FM051800 07005KT P6SM SKC FM060300 22007KT P6SM FEW250
KLSV 
40nm NW 
050700Z 0507/0613 03005KT 9999 SKC QNH3026INS BECMG 0517/0518 13006KT 9999 SKC QNH3003INS TEMPO 0521/0524 15010G15KT BECMG 0605/0606 32005KT 9999 SKC QNH2996INS TX23/0523Z TN06/0514Z
NOTAMs
Click for the latest NOTAMs
NOTAMs are issued by the DoD/FAA and will open in a separate window not controlled by AirNav.

 

 
 

Would you like to see your business listed on this page?

 If your business provides an interesting product or service to pilots, flight crews, aircraft, or users of the Triangle Airpark, you should consider listing it here.  To start the listing process, click on the button below
 
Add a business
 

Other Pages about Triangle Airpark

Update a link
 
Copyright © AirNav, LLC. All rights reserved. Privacy Policy  Contact